L'image de la webcam se met à jour toutes les 30s.
La jauge météo se met à jour toutes les 10s d'après les données envoyées par la station météo du club.
Les graphiques se mettent à jour toutes les 5min et ne s'affichent que si la station est en ligne
Surfaces en herbe praticables.
MAJ le 14/07/2021 16h00 DDE
METAR de LFRD (Source NOAA)
LFRD 291900Z AUTO 21009KT CAVOK 19/12 Q1011 NOSIG

TAF de LFRD (Source NOAA)
TAF LFRD 291700Z 2918/3018 24010KT 9999 SCT040 BECMG 3000/3002 22015G25KT TEMPO 3000/3003 4000 RA BKN012 PROB30 TEMPO 3000/3003 BKN008 PROB30 TEMPO 3010/3018 SHRA BKN020TCU
Ayez la webcam en fond d'écran de votre téléphone ou de votre tablette Android avec l'appli du club.